sensor_id;sensor_type;location;lat;lon;timestamp;pressure;altitude;pressure_sealevel;temperature;humidity
33161;BME280;19522;45.656;11.302;2022-08-21T00:01:22;98106.13;;;20.10;66.14
33161;BME280;19522;45.656;11.302;2022-08-21T00:03:48;98080.16;;;19.83;65.26
33161;BME280;19522;45.656;11.302;2022-08-21T00:06:14;98096.69;;;19.83;65.42
33161;BME280;19522;45.656;11.302;2022-08-21T00:08:39;98101.19;;;19.89;65.70
33161;BME280;19522;45.656;11.302;2022-08-21T00:11:06;98096.06;;;19.98;65.51
33161;BME280;19522;45.656;11.302;2022-08-21T00:13:32;98051.88;;;19.66;65.23
33161;BME280;19522;45.656;11.302;2022-08-21T00:15:59;98096.97;;;20.04;65.62
33161;BME280;19522;45.656;11.302;2022-08-21T00:18:26;98097.97;;;19.98;65.57
33161;BME280;19522;45.656;11.302;2022-08-21T00:20:51;98096.41;;;20.07;65.87
33161;BME280;19522;45.656;11.302;2022-08-21T00:23:17;98060.47;;;19.74;66.39
33161;BME280;19522;45.656;11.302;2022-08-21T00:25:44;98069.66;;;19.80;66.52
33161;BME280;19522;45.656;11.302;2022-08-21T00:28:11;98092.16;;;19.94;66.08
33161;BME280;19522;45.656;11.302;2022-08-21T00:30:37;98086.31;;;19.90;65.67
33161;BME280;19522;45.656;11.302;2022-08-21T00:33:03;98092.84;;;19.84;65.23
33161;BME280;19522;45.656;11.302;2022-08-21T00:35:32;98092.09;;;19.89;64.45
33161;BME280;19522;45.656;11.302;2022-08-21T00:37:58;98089.38;;;19.94;64.20
33161;BME280;19522;45.656;11.302;2022-08-21T00:40:33;98094.41;;;19.97;64.42
33161;BME280;19522;45.656;11.302;2022-08-21T00:43:04;98092.41;;;19.92;64.27
33161;BME280;19522;45.656;11.302;2022-08-21T00:45:31;98061.22;;;19.65;64.64
33161;BME280;19522;45.656;11.302;2022-08-21T00:47:57;98085.16;;;19.86;64.97
33161;BME280;19522;45.656;11.302;2022-08-21T00:50:26;98075.31;;;19.90;65.59
33161;BME280;19522;45.656;11.302;2022-08-21T00:52:53;98060.28;;;19.81;65.35
33161;BME280;19522;45.656;11.302;2022-08-21T00:55:22;98056.97;;;19.79;65.80
33161;BME280;19522;45.656;11.302;2022-08-21T00:57:51;98071.72;;;19.90;65.59
33161;BME280;19522;45.656;11.302;2022-08-21T01:00:25;98065.88;;;19.86;64.50
33161;BME280;19522;45.656;11.302;2022-08-21T01:02:53;98015.78;;;19.67;64.55
33161;BME280;19522;45.656;11.302;2022-08-21T01:05:19;98044.22;;;19.73;65.37
33161;BME280;19522;45.656;11.302;2022-08-21T01:07:48;98033.72;;;19.70;65.66
33161;BME280;19522;45.656;11.302;2022-08-21T01:10:15;98063.56;;;20.00;65.43
33161;BME280;19522;45.656;11.302;2022-08-21T01:12:41;98053.31;;;19.73;66.34
33161;BME280;19522;45.656;11.302;2022-08-21T01:15:08;98052.84;;;19.82;66.72
33161;BME280;19522;45.656;11.302;2022-08-21T01:17:37;98061.78;;;19.89;67.53
33161;BME280;19522;45.656;11.302;2022-08-21T01:20:06;98062.63;;;19.89;67.32
33161;BME280;19522;45.656;11.302;2022-08-21T01:22:38;98061.97;;;19.82;67.85
33161;BME280;19522;45.656;11.302;2022-08-21T01:25:06;98050.81;;;19.72;67.61
33161;BME280;19522;45.656;11.302;2022-08-21T01:27:32;98047.38;;;19.59;68.42
33161;BME280;19522;45.656;11.302;2022-08-21T01:30:01;98056.66;;;19.53;68.73
33161;BME280;19522;45.656;11.302;2022-08-21T01:32:28;98046.47;;;19.54;68.19
33161;BME280;19522;45.656;11.302;2022-08-21T01:34:53;98045.97;;;19.35;68.59
33161;BME280;19522;45.656;11.302;2022-08-21T01:37:21;98055.13;;;19.40;69.06
33161;BME280;19522;45.656;11.302;2022-08-21T01:39:47;98052.75;;;19.27;69.60
33161;BME280;19522;45.656;11.302;2022-08-21T01:42:13;97989.69;;;18.86;69.27
33161;BME280;19522;45.656;11.302;2022-08-21T01:44:39;98050.06;;;19.32;69.51
33161;BME280;19522;45.656;11.302;2022-08-21T01:47:08;98045.97;;;19.35;69.32
33161;BME280;19522;45.656;11.302;2022-08-21T01:49:35;98036.09;;;19.39;69.15
33161;BME280;19522;45.656;11.302;2022-08-21T01:52:02;98040.06;;;19.48;68.12
33161;BME280;19522;45.656;11.302;2022-08-21T01:54:29;98032.78;;;19.37;68.75
33161;BME280;19522;45.656;11.302;2022-08-21T01:56:56;98034.09;;;19.34;68.85
33161;BME280;19522;45.656;11.302;2022-08-21T01:59:23;98037.31;;;19.26;69.22
33161;BME280;19522;45.656;11.302;2022-08-21T02:01:52;98029.75;;;19.16;70.04
33161;BME280;19522;45.656;11.302;2022-08-21T02:04:19;98006.72;;;19.00;70.45
33161;BME280;19522;45.656;11.302;2022-08-21T02:06:46;98027.69;;;19.28;69.45
33161;BME280;19522;45.656;11.302;2022-08-21T02:09:12;98006.13;;;18.98;70.39
33161;BME280;19522;45.656;11.302;2022-08-21T02:11:39;98030.06;;;18.97;71.29
33161;BME280;19522;45.656;11.302;2022-08-21T02:14:07;98009.53;;;18.88;71.39
33161;BME280;19522;45.656;11.302;2022-08-21T02:16:33;97984.84;;;18.54;71.61
33161;BME280;19522;45.656;11.302;2022-08-21T02:18:59;98027.03;;;18.82;71.71
33161;BME280;19522;45.656;11.302;2022-08-21T02:21:25;98027.91;;;18.65;72.70
33161;BME280;19522;45.656;11.302;2022-08-21T02:23:51;98019.50;;;18.55;73.04
33161;BME280;19522;45.656;11.302;2022-08-21T02:26:16;98018.47;;;18.61;72.53
33161;BME280;19522;45.656;11.302;2022-08-21T02:28:42;97996.59;;;18.49;71.80
33161;BME280;19522;45.656;11.302;2022-08-21T02:31:08;97982.50;;;18.29;72.72
33161;BME280;19522;45.656;11.302;2022-08-21T02:33:33;97999.25;;;18.27;73.42
33161;BME280;19522;45.656;11.302;2022-08-21T02:36:00;98001.75;;;18.46;72.34
33161;BME280;19522;45.656;11.302;2022-08-21T02:38:29;98017.22;;;18.69;71.61
33161;BME280;19522;45.656;11.302;2022-08-21T02:40:56;98007.56;;;18.66;71.49
33161;BME280;19522;45.656;11.302;2022-08-21T02:43:24;97983.00;;;18.60;70.85
33161;BME280;19522;45.656;11.302;2022-08-21T02:45:54;98004.13;;;18.76;70.18
33161;BME280;19522;45.656;11.302;2022-08-21T02:48:23;98011.03;;;18.96;70.21
33161;BME280;19522;45.656;11.302;2022-08-21T02:50:57;98017.22;;;18.86;70.13
33161;BME280;19522;45.656;11.302;2022-08-21T02:53:25;98014.66;;;18.62;70.96
33161;BME280;19522;45.656;11.302;2022-08-21T02:55:52;98006.41;;;18.62;71.08
33161;BME280;19522;45.656;11.302;2022-08-21T02:58:24;98006.00;;;18.71;71.06
33161;BME280;19522;45.656;11.302;2022-08-21T03:00:50;97985.84;;;18.65;70.62
33161;BME280;19522;45.656;11.302;2022-08-21T03:03:17;98011.81;;;18.74;70.75
33161;BME280;19522;45.656;11.302;2022-08-21T03:05:43;98020.63;;;18.76;70.19
33161;BME280;19522;45.656;11.302;2022-08-21T03:08:12;98015.16;;;18.59;70.63
33161;BME280;19522;45.656;11.302;2022-08-21T03:10:43;98010.59;;;18.48;71.59
33161;BME280;19522;45.656;11.302;2022-08-21T03:13:10;97990.59;;;18.35;71.52
33161;BME280;19522;45.656;11.302;2022-08-21T03:15:36;97982.84;;;18.32;72.04
33161;BME280;19522;45.656;11.302;2022-08-21T03:18:03;97970.03;;;18.21;71.89
33161;BME280;19522;45.656;11.302;2022-08-21T03:20:30;98011.09;;;18.45;71.96
33161;BME280;19522;45.656;11.302;2022-08-21T03:22:56;98004.94;;;18.37;71.92
33161;BME280;19522;45.656;11.302;2022-08-21T03:25:23;98003.91;;;18.44;71.72
33161;BME280;19522;45.656;11.302;2022-08-21T03:27:49;97991.44;;;18.36;71.64
33161;BME280;19522;45.656;11.302;2022-08-21T03:30:16;97999.00;;;18.46;71.47
33161;BME280;19522;45.656;11.302;2022-08-21T03:32:42;98000.66;;;18.47;71.06
33161;BME280;19522;45.656;11.302;2022-08-21T03:35:08;98003.34;;;18.42;71.35
33161;BME280;19522;45.656;11.302;2022-08-21T03:37:34;97991.00;;;18.27;71.36
33161;BME280;19522;45.656;11.302;2022-08-21T03:40:02;98002.84;;;18.45;70.81
33161;BME280;19522;45.656;11.302;2022-08-21T03:42:28;97937.44;;;17.96;71.56
33161;BME280;19522;45.656;11.302;2022-08-21T03:44:54;97991.34;;;18.14;71.63
33161;BME280;19522;45.656;11.302;2022-08-21T03:47:19;97958.13;;;17.98;71.11
33161;BME280;19522;45.656;11.302;2022-08-21T03:49:48;97937.28;;;17.85;71.11
33161;BME280;19522;45.656;11.302;2022-08-21T03:52:13;97963.88;;;17.85;71.54
33161;BME280;19522;45.656;11.302;2022-08-21T03:54:39;97994.00;;;18.09;71.92
33161;BME280;19522;45.656;11.302;2022-08-21T03:57:06;97956.91;;;17.94;71.23
33161;BME280;19522;45.656;11.302;2022-08-21T03:59:31;97990.41;;;18.25;70.97
33161;BME280;19522;45.656;11.302;2022-08-21T04:01:59;97952.34;;;18.00;70.80
33161;BME280;19522;45.656;11.302;2022-08-21T04:04:27;97988.94;;;18.34;70.09
33161;BME280;19522;45.656;11.302;2022-08-21T04:06:53;97995.59;;;18.38;69.93
33161;BME280;19522;45.656;11.302;2022-08-21T04:09:19;97992.25;;;18.36;69.80
33161;BME280;19522;45.656;11.302;2022-08-21T04:11:45;97998.00;;;18.52;69.49
33161;BME280;19522;45.656;11.302;2022-08-21T04:14:13;97995.44;;;18.28;70.08
33161;BME280;19522;45.656;11.302;2022-08-21T04:16:39;97974.94;;;18.19;70.62
33161;BME280;19522;45.656;11.302;2022-08-21T04:19:07;97989.00;;;18.05;70.86
33161;BME280;19522;45.656;11.302;2022-08-21T04:21:33;97925.59;;;17.61;71.32
33161;BME280;19522;45.656;11.302;2022-08-21T04:23:59;97999.50;;;18.09;71.11
33161;BME280;19522;45.656;11.302;2022-08-21T04:26:25;97998.34;;;17.92;71.66
33161;BME280;19522;45.656;11.302;2022-08-21T04:28:51;98000.69;;;17.84;71.85
33161;BME280;19522;45.656;11.302;2022-08-21T04:31:18;98010.69;;;17.90;71.92
33161;BME280;19522;45.656;11.302;2022-08-21T04:33:47;97967.28;;;17.75;71.76
33161;BME280;19522;45.656;11.302;2022-08-21T04:36:12;97966.28;;;17.81;71.40
33161;BME280;19522;45.656;11.302;2022-08-21T04:38:38;97999.78;;;17.95;70.56
33161;BME280;19522;45.656;11.302;2022-08-21T04:41:04;98008.16;;;18.00;70.17
33161;BME280;19522;45.656;11.302;2022-08-21T04:43:30;97995.19;;;17.84;70.15
33161;BME280;19522;45.656;11.302;2022-08-21T04:45:56;97996.03;;;17.84;70.19
33161;BME280;19522;45.656;11.302;2022-08-21T04:48:22;98003.91;;;17.81;69.99
33161;BME280;19522;45.656;11.302;2022-08-21T04:50:59;97986.50;;;17.75;69.76
33161;BME280;19522;45.656;11.302;2022-08-21T04:53:32;98004.09;;;17.91;69.93
33161;BME280;19522;45.656;11.302;2022-08-21T04:56:03;98007.19;;;17.95;70.03
33161;BME280;19522;45.656;11.302;2022-08-21T04:58:30;97986.44;;;17.87;69.92
33161;BME280;19522;45.656;11.302;2022-08-21T05:01:00;97990.59;;;18.01;70.07
33161;BME280;19522;45.656;11.302;2022-08-21T05:03:27;97993.22;;;17.96;69.83
33161;BME280;19522;45.656;11.302;2022-08-21T05:05:53;97986.78;;;17.90;69.41
33161;BME280;19522;45.656;11.302;2022-08-21T05:08:21;97970.53;;;17.72;68.80
33161;BME280;19522;45.656;11.302;2022-08-21T05:10:48;98001.06;;;18.04;68.87
33161;BME280;19522;45.656;11.302;2022-08-21T05:13:15;98005.91;;;18.14;69.02
33161;BME280;19522;45.656;11.302;2022-08-21T05:15:41;97999.50;;;18.09;69.03
33161;BME280;19522;45.656;11.302;2022-08-21T05:18:07;98000.16;;;18.16;68.89
33161;BME280;19522;45.656;11.302;2022-08-21T05:20:33;97995.19;;;18.13;69.52
33161;BME280;19522;45.656;11.302;2022-08-21T05:23:07;98002.59;;;18.29;68.74
33161;BME280;19522;45.656;11.302;2022-08-21T05:25:33;98001.41;;;18.25;69.45
33161;BME280;19522;45.656;11.302;2022-08-21T05:27:58;98002.09;;;18.15;69.75
33161;BME280;19522;45.656;11.302;2022-08-21T05:30:24;98008.75;;;18.19;69.74
33161;BME280;19522;45.656;11.302;2022-08-21T05:32:59;97979.94;;;18.05;69.92
33161;BME280;19522;45.656;11.302;2022-08-21T05:35:26;98002.84;;;18.11;70.19
33161;BME280;19522;45.656;11.302;2022-08-21T05:37:52;97995.66;;;18.10;70.47
33161;BME280;19522;45.656;11.302;2022-08-21T05:40:17;97975.84;;;18.08;70.14
33161;BME280;19522;45.656;11.302;2022-08-21T05:42:43;97983.78;;;18.21;69.79
33161;BME280;19522;45.656;11.302;2022-08-21T05:45:12;97999.25;;;18.44;69.73
33161;BME280;19522;45.656;11.302;2022-08-21T05:47:41;97991.44;;;18.36;68.67
33161;BME280;19522;45.656;11.302;2022-08-21T05:50:07;97973.69;;;18.27;69.30
33161;BME280;19522;45.656;11.302;2022-08-21T05:52:32;98004.75;;;18.44;69.55
33161;BME280;19522;45.656;11.302;2022-08-21T05:54:58;97930.22;;;18.06;68.56
33161;BME280;19522;45.656;11.302;2022-08-21T05:57:23;98006.34;;;18.57;67.64
33161;BME280;19522;45.656;11.302;2022-08-21T05:59:50;97975.28;;;18.40;67.79
33161;BME280;19522;45.656;11.302;2022-08-21T06:02:17;98006.00;;;18.71;67.22
33161;BME280;19522;45.656;11.302;2022-08-21T06:04:43;97959.00;;;18.55;66.72
33161;BME280;19522;45.656;11.302;2022-08-21T06:07:09;97995.88;;;18.93;66.54
33161;BME280;19522;45.656;11.302;2022-08-21T06:09:36;97927.41;;;18.58;65.47
33161;BME280;19522;45.656;11.302;2022-08-21T06:12:11;97997.75;;;19.10;65.24
33161;BME280;19522;45.656;11.302;2022-08-21T06:14:38;97977.03;;;19.02;65.64
33161;BME280;19522;45.656;11.302;2022-08-21T06:17:06;97930.78;;;18.82;65.52
33161;BME280;19522;45.656;11.302;2022-08-21T06:19:33;97992.50;;;19.30;64.23
33161;BME280;19522;45.656;11.302;2022-08-21T06:21:59;97978.03;;;19.40;62.72
33161;BME280;19522;45.656;11.302;2022-08-21T06:24:24;97936.97;;;19.39;62.41
33161;BME280;19522;45.656;11.302;2022-08-21T06:26:50;97979.00;;;20.06;61.78
33161;BME280;19522;45.656;11.302;2022-08-21T06:29:16;97988.63;;;20.36;60.58
33161;BME280;19522;45.656;11.302;2022-08-21T06:31:43;97984.31;;;20.83;58.79
33161;BME280;19522;45.656;11.302;2022-08-21T06:34:09;97959.81;;;20.97;58.29
33161;BME280;19522;45.656;11.302;2022-08-21T06:36:34;97863.22;;;20.92;56.25
33161;BME280;19522;45.656;11.302;2022-08-21T06:39:00;97978.97;;;22.14;53.86
33161;BME280;19522;45.656;11.302;2022-08-21T06:41:27;97929.72;;;22.47;51.28
33161;BME280;19522;45.656;11.302;2022-08-21T06:43:56;97996.75;;;23.45;51.09
33161;BME280;19522;45.656;11.302;2022-08-21T06:46:24;97956.91;;;23.86;48.80
33161;BME280;19522;45.656;11.302;2022-08-21T06:48:53;97972.09;;;24.63;46.85
33161;BME280;19522;45.656;11.302;2022-08-21T06:51:19;97971.28;;;25.16;46.11
33161;BME280;19522;45.656;11.302;2022-08-21T06:53:44;97950.31;;;25.54;44.31
33161;BME280;19522;45.656;11.302;2022-08-21T06:56:10;97971.56;;;26.02;44.40
33161;BME280;19522;45.656;11.302;2022-08-21T06:58:36;97967.94;;;26.39;43.33
33161;BME280;19522;45.656;11.302;2022-08-21T07:01:02;97968.50;;;26.69;42.40
33161;BME280;19522;45.656;11.302;2022-08-21T07:03:44;97976.84;;;27.16;40.98
33161;BME280;19522;45.656;11.302;2022-08-21T07:06:10;97963.97;;;27.34;40.10
33161;BME280;19522;45.656;11.302;2022-08-21T07:08:37;97971.28;;;27.58;39.79
33161;BME280;19522;45.656;11.302;2022-08-21T07:11:09;97930.16;;;27.64;39.58
33161;BME280;19522;45.656;11.302;2022-08-21T07:13:36;97965.38;;;28.10;38.77
33161;BME280;19522;45.656;11.302;2022-08-21T07:16:02;97958.34;;;28.36;37.86
33161;BME280;19522;45.656;11.302;2022-08-21T07:18:28;97956.06;;;28.60;37.27
33161;BME280;19522;45.656;11.302;2022-08-21T07:20:54;97953.09;;;28.88;36.62
33161;BME280;19522;45.656;11.302;2022-08-21T07:23:30;97967.00;;;29.11;36.69
33161;BME280;19522;45.656;11.302;2022-08-21T07:25:56;97956.69;;;29.29;36.64
33161;BME280;19522;45.656;11.302;2022-08-21T07:28:24;97941.63;;;29.39;35.24
33161;BME280;19522;45.656;11.302;2022-08-21T07:30:51;97918.63;;;29.60;34.72
33161;BME280;19522;45.656;11.302;2022-08-21T07:33:18;97929.38;;;29.93;33.26
33161;BME280;19522;45.656;11.302;2022-08-21T07:35:43;97950.63;;;30.11;34.15
33161;BME280;19522;45.656;11.302;2022-08-21T07:38:09;97931.75;;;29.33;36.07
33161;BME280;19522;45.656;11.302;2022-08-21T07:40:34;97959.69;;;28.92;36.61
33161;BME280;19522;45.656;11.302;2022-08-21T07:43:00;97963.22;;;28.75;37.12
33161;BME280;19522;45.656;11.302;2022-08-21T07:45:26;97960.84;;;28.69;37.54
33161;BME280;19522;45.656;11.302;2022-08-21T07:47:51;97956.19;;;28.78;37.25
33161;BME280;19522;45.656;11.302;2022-08-21T07:50:20;97962.13;;;28.63;37.31
33161;BME280;19522;45.656;11.302;2022-08-21T07:52:46;97960.41;;;29.07;37.86
33161;BME280;19522;45.656;11.302;2022-08-21T07:55:14;97953.84;;;29.52;35.69
33161;BME280;19522;45.656;11.302;2022-08-21T07:57:41;97915.84;;;29.68;34.25
33161;BME280;19522;45.656;11.302;2022-08-21T08:00:09;97950.25;;;29.87;32.86
33161;BME280;19522;45.656;11.302;2022-08-21T08:02:35;97925.41;;;29.85;32.35
33161;BME280;19522;45.656;11.302;2022-08-21T08:05:05;97928.72;;;30.13;33.78
33161;BME280;19522;45.656;11.302;2022-08-21T08:07:31;97898.91;;;30.09;33.81
33161;BME280;19522;45.656;11.302;2022-08-21T08:09:57;97922.25;;;30.48;32.54
33161;BME280;19522;45.656;11.302;2022-08-21T08:12:24;97945.28;;;30.71;32.71
33161;BME280;19522;45.656;11.302;2022-08-21T08:14:58;97935.38;;;30.74;33.41
33161;BME280;19522;45.656;11.302;2022-08-21T08:17:24;97901.50;;;30.31;31.33
33161;BME280;19522;45.656;11.302;2022-08-21T08:19:50;97866.75;;;30.33;32.68
33161;BME280;19522;45.656;11.302;2022-08-21T08:22:17;97921.00;;;31.23;32.67
33161;BME280;19522;45.656;11.302;2022-08-21T08:24:47;97924.94;;;30.92;30.79
33161;BME280;19522;45.656;11.302;2022-08-21T08:27:14;97898.72;;;30.88;30.92
33161;BME280;19522;45.656;11.302;2022-08-21T08:29:44;97873.94;;;30.60;31.85
33161;BME280;19522;45.656;11.302;2022-08-21T08:32:10;97903.03;;;30.85;29.50
33161;BME280;19522;45.656;11.302;2022-08-21T08:34:37;97908.22;;;30.66;29.24
33161;BME280;19522;45.656;11.302;2022-08-21T08:37:05;97914.50;;;31.01;30.49
33161;BME280;19522;45.656;11.302;2022-08-21T08:39:34;97892.56;;;30.56;30.22
33161;BME280;19522;45.656;11.302;2022-08-21T08:42:07;97906.41;;;30.61;29.63
33161;BME280;19522;45.656;11.302;2022-08-21T08:44:36;97899.34;;;30.46;29.74
33161;BME280;19522;45.656;11.302;2022-08-21T08:47:02;97906.22;;;30.66;30.46
33161;BME280;19522;45.656;11.302;2022-08-21T08:49:36;97909.84;;;30.67;30.53
33161;BME280;19522;45.656;11.302;2022-08-21T08:54:39;97910.16;;;30.74;29.98
33161;BME280;19522;45.656;11.302;2022-08-21T08:57:14;97910.06;;;30.53;29.91
33161;BME280;19522;45.656;11.302;2022-08-21T08:59:43;97907.41;;;30.56;30.51
33161;BME280;19522;45.656;11.302;2022-08-21T09:02:11;97917.63;;;30.43;31.01
33161;BME280;19522;45.656;11.302;2022-08-21T09:04:37;97909.06;;;30.49;31.41
33161;BME280;19522;45.656;11.302;2022-08-21T09:10:17;97906.44;;;30.52;31.00
33161;BME280;19522;45.656;11.302;2022-08-21T09:12:53;97908.94;;;30.27;32.40
33161;BME280;19522;45.656;11.302;2022-08-21T09:23:53;97901.53;;;29.88;31.82
33161;BME280;19522;45.656;11.302;2022-08-21T09:26:23;97899.72;;;29.65;31.61
33161;BME280;19522;45.656;11.302;2022-08-21T09:28:56;97898.06;;;29.47;32.76
33161;BME280;19522;45.656;11.302;2022-08-21T09:31:26;97897.25;;;29.64;32.41
33161;BME280;19522;45.656;11.302;2022-08-21T09:36:45;97885.56;;;29.62;31.82
33161;BME280;19522;45.656;11.302;2022-08-21T09:39:23;97892.31;;;29.78;31.74
33161;BME280;19522;45.656;11.302;2022-08-21T09:41:59;97894.97;;;30.01;31.95
33161;BME280;19522;45.656;11.302;2022-08-21T09:44:27;97881.78;;;29.75;31.30
33161;BME280;19522;45.656;11.302;2022-08-21T09:46:54;97889.34;;;29.83;31.23
33161;BME280;19522;45.656;11.302;2022-08-21T09:49:34;97881.13;;;29.69;31.35
33161;BME280;19522;45.656;11.302;2022-08-21T09:52:01;97881.13;;;30.05;31.81
33161;BME280;19522;45.656;11.302;2022-08-21T09:54:33;97875.88;;;29.85;30.92
33161;BME280;19522;45.656;11.302;2022-08-21T09:59:55;97877.38;;;30.00;31.26
33161;BME280;19522;45.656;11.302;2022-08-21T10:02:34;97887.88;;;30.04;31.90
33161;BME280;19522;45.656;11.302;2022-08-21T10:05:23;97873.53;;;29.88;29.38
33161;BME280;19522;45.656;11.302;2022-08-21T10:07:48;97865.31;;;30.18;31.84
33161;BME280;19522;45.656;11.302;2022-08-21T10:10:18;97880.59;;;30.38;30.63
33161;BME280;19522;45.656;11.302;2022-08-21T10:13:13;97872.69;;;30.31;29.11
33161;BME280;19522;45.656;11.302;2022-08-21T10:21:36;97880.84;;;30.62;31.18
33161;BME280;19522;45.656;11.302;2022-08-21T10:30:03;97859.50;;;30.40;31.60
33161;BME280;19522;45.656;11.302;2022-08-21T10:35:17;97867.16;;;29.96;31.48
33161;BME280;19522;45.656;11.302;2022-08-21T10:40:40;97878.81;;;29.98;31.07
33161;BME280;19522;45.656;11.302;2022-08-21T10:43:19;97876.84;;;30.07;32.49
33161;BME280;19522;45.656;11.302;2022-08-21T10:48:24;97874.03;;;30.25;30.55
33161;BME280;19522;45.656;11.302;2022-08-21T10:50:54;97856.06;;;30.26;29.50
33161;BME280;19522;45.656;11.302;2022-08-21T10:56:16;97866.59;;;30.29;29.55
33161;BME280;19522;45.656;11.302;2022-08-21T10:59:00;97865.00;;;30.10;29.63
33161;BME280;19522;45.656;11.302;2022-08-21T11:01:46;97839.31;;;29.91;28.73
33161;BME280;19522;45.656;11.302;2022-08-21T11:04:20;97869.59;;;30.06;29.48
33161;BME280;19522;45.656;11.302;2022-08-21T11:06:52;97874.22;;;30.02;29.26
33161;BME280;19522;45.656;11.302;2022-08-21T11:09:20;97873.06;;;30.03;29.36
33161;BME280;19522;45.656;11.302;2022-08-21T11:11:58;97874.22;;;29.93;29.71
33161;BME280;19522;45.656;11.302;2022-08-21T11:17:39;97870.25;;;29.77;30.38
33161;BME280;19522;45.656;11.302;2022-08-21T11:20:38;97865.66;;;29.81;32.01
33161;BME280;19522;45.656;11.302;2022-08-21T11:23:23;97849.53;;;29.95;29.23
33161;BME280;19522;45.656;11.302;2022-08-21T11:25:55;97856.59;;;30.10;30.33
33161;BME280;19522;45.656;11.302;2022-08-21T11:28:34;97861.03;;;30.20;28.92
33161;BME280;19522;45.656;11.302;2022-08-21T11:34:01;97856.16;;;30.56;28.42
33161;BME280;19522;45.656;11.302;2022-08-21T11:36:40;97853.59;;;30.33;28.50
33161;BME280;19522;45.656;11.302;2022-08-21T11:41:57;97843.94;;;30.60;28.78
33161;BME280;19522;45.656;11.302;2022-08-21T11:44:40;97848.94;;;30.85;28.09
33161;BME280;19522;45.656;11.302;2022-08-21T11:50:17;97812.31;;;30.60;27.63
33161;BME280;19522;45.656;11.302;2022-08-21T11:52:48;97829.97;;;30.90;27.69
33161;BME280;19522;45.656;11.302;2022-08-21T11:55:18;97838.88;;;30.92;26.95
33161;BME280;19522;45.656;11.302;2022-08-21T12:00:30;97827.44;;;31.28;26.92
33161;BME280;19522;45.656;11.302;2022-08-21T12:03:11;97834.75;;;30.90;27.22
33161;BME280;19522;45.656;11.302;2022-08-21T12:05:40;97831.19;;;30.81;27.44
33161;BME280;19522;45.656;11.302;2022-08-21T12:08:32;97823.94;;;30.80;27.41
33161;BME280;19522;45.656;11.302;2022-08-21T12:13:38;97817.59;;;31.21;26.81
33161;BME280;19522;45.656;11.302;2022-08-21T12:16:06;97831.34;;;31.35;27.29
33161;BME280;19522;45.656;11.302;2022-08-21T12:18:32;97829.84;;;31.17;27.46
33161;BME280;19522;45.656;11.302;2022-08-21T12:21:47;97827.19;;;31.20;27.62
33161;BME280;19522;45.656;11.302;2022-08-21T12:24:01;97827.75;;;31.05;28.77
33161;BME280;19522;45.656;11.302;2022-08-21T12:26:55;97801.44;;;30.88;28.83
33161;BME280;19522;45.656;11.302;2022-08-21T12:29:32;97825.28;;;31.03;29.57
33161;BME280;19522;45.656;11.302;2022-08-21T12:32:23;97811.59;;;31.53;29.31
33161;BME280;19522;45.656;11.302;2022-08-21T12:35:18;97775.19;;;31.23;28.03
33161;BME280;19522;45.656;11.302;2022-08-21T12:37:49;97802.81;;;31.33;28.23
33161;BME280;19522;45.656;11.302;2022-08-21T12:40:26;97799.03;;;31.08;29.27
33161;BME280;19522;45.656;11.302;2022-08-21T12:42:55;97779.88;;;31.19;30.26
33161;BME280;19522;45.656;11.302;2022-08-21T12:45:39;97810.66;;;31.49;29.82
33161;BME280;19522;45.656;11.302;2022-08-21T12:50:41;97753.84;;;31.09;30.57
33161;BME280;19522;45.656;11.302;2022-08-21T12:53:15;97749.59;;;31.46;30.37
33161;BME280;19522;45.656;11.302;2022-08-21T12:55:44;97794.47;;;31.88;27.68
33161;BME280;19522;45.656;11.302;2022-08-21T12:58:21;97791.13;;;31.74;28.37
33161;BME280;19522;45.656;11.302;2022-08-21T13:00:54;97737.84;;;31.31;27.92
33161;BME280;19522;45.656;11.302;2022-08-21T13:03:21;97788.72;;;31.63;27.79
33161;BME280;19522;45.656;11.302;2022-08-21T13:05:47;97786.00;;;31.76;28.18
33161;BME280;19522;45.656;11.302;2022-08-21T13:08:13;97787.66;;;31.89;27.78
33161;BME280;19522;45.656;11.302;2022-08-21T13:10:40;97779.28;;;32.01;27.05
33161;BME280;19522;45.656;11.302;2022-08-21T13:13:12;97781.84;;;31.94;27.23
33161;BME280;19522;45.656;11.302;2022-08-21T13:15:42;97784.50;;;31.57;27.95
33161;BME280;19522;45.656;11.302;2022-08-21T13:18:08;97742.31;;;31.99;27.74
33161;BME280;19522;45.656;11.302;2022-08-21T13:20:36;97757.97;;;32.59;27.76
33161;BME280;19522;45.656;11.302;2022-08-21T13:23:07;97768.88;;;32.60;27.18
33161;BME280;19522;45.656;11.302;2022-08-21T13:25:41;97743.94;;;31.88;26.13
33161;BME280;19522;45.656;11.302;2022-08-21T13:28:09;97759.75;;;31.93;26.83
33161;BME280;19522;45.656;11.302;2022-08-21T13:30:40;97758.78;;;32.47;27.77
33161;BME280;19522;45.656;11.302;2022-08-21T13:33:08;97752.72;;;32.45;27.54
33161;BME280;19522;45.656;11.302;2022-08-21T13:35:50;97750.47;;;32.75;26.80
33161;BME280;19522;45.656;11.302;2022-08-21T13:38:20;97730.81;;;32.75;27.51
33161;BME280;19522;45.656;11.302;2022-08-21T13:40:54;97755.75;;;31.94;27.33
33161;BME280;19522;45.656;11.302;2022-08-21T13:43:27;97733.00;;;32.08;28.65
33161;BME280;19522;45.656;11.302;2022-08-21T13:45:54;97759.50;;;32.81;27.98
33161;BME280;19522;45.656;11.302;2022-08-21T13:48:26;97754.56;;;33.03;27.04
33161;BME280;19522;45.656;11.302;2022-08-21T13:50:54;97740.44;;;32.50;26.79
33161;BME280;19522;45.656;11.302;2022-08-21T13:54:12;97750.59;;;33.04;27.71
33161;BME280;19522;45.656;11.302;2022-08-21T13:56:40;97751.69;;;33.40;27.17
33161;BME280;19522;45.656;11.302;2022-08-21T13:59:06;97746.84;;;32.62;27.34
33161;BME280;19522;45.656;11.302;2022-08-21T14:01:52;97746.59;;;32.68;27.12
33161;BME280;19522;45.656;11.302;2022-08-21T14:04:25;97741.81;;;32.93;27.11